Time;durP1;ratioP1;P1;durP2;ratioP2;P2;SDS_P1;SDS_P2;PMS_P1;PMS_P2;Temp;Humidity;BMP_temperature;BMP_pressure;BME280_temperature;BME280_humidity;BME280_pressure;Samples;Min_cycle;Max_cycle;Signal;HPM_P1;HPM_P2
2022/01/17 00:01:45;;;;;;;65.30;20.60;;;6.50;99.90;;;;;;5069464;28;20214;-88
2022/01/17 00:04:12;;;;;;;81.00;25.77;;;6.40;99.90;;;;;;5067461;28;20232;-88
2022/01/17 00:06:41;;;;;;;69.10;23.30;;;6.40;99.90;;;;;;5069496;28;20661;-87
2022/01/17 00:09:08;;;;;;;85.13;28.10;;;6.40;99.90;;;;;;5061133;28;20216;-87
2022/01/17 00:11:39;;;;;;;61.13;18.67;;;6.40;99.90;;;;;;5067708;28;20220;-87
2022/01/17 00:14:12;;;;;;;74.17;23.60;;;6.50;99.90;;;;;;5066723;28;20792;-86
2022/01/17 00:16:43;;;;;;;54.67;19.73;;;6.50;99.90;;;;;;5071618;28;20196;-87
2022/01/17 00:19:36;;;;;;;67.97;22.53;;;6.50;99.90;;;;;;5067907;28;20221;-87
2022/01/17 00:22:04;;;;;;;60.43;18.40;;;6.80;99.90;;;;;;5069936;28;20205;-87
2022/01/17 00:24:31;;;;;;;76.47;24.40;;;6.50;99.90;;;;;;5064852;28;20228;-87
2022/01/17 00:26:58;;;;;;;62.73;20.70;;;6.50;99.90;;;;;;5066034;28;20225;-88
2022/01/17 00:29:26;;;;;;;43.87;12.30;;;6.50;99.90;;;;;;5067442;28;20680;-88
2022/01/17 00:31:53;;;;;;;85.80;24.60;;;6.60;99.90;;;;;;5068110;28;20226;-88
2022/01/17 00:34:20;;;;;;;71.67;23.53;;;6.60;99.90;;;;;;5065898;28;20237;-87
2022/01/17 00:36:47;;;;;;;74.63;23.07;;;6.60;99.90;;;;;;5067266;28;20215;-87
2022/01/17 00:39:14;;;;;;;71.93;22.97;;;6.60;99.90;;;;;;5065673;28;20220;-87
2022/01/17 00:41:41;;;;;;;70.67;23.13;;;6.60;99.90;;;;;;5069305;28;20282;-87
2022/01/17 00:44:09;;;;;;;48.80;17.63;;;6.60;99.90;;;;;;5070570;28;20286;-87
2022/01/17 00:46:37;;;;;;;64.60;21.70;;;7.90;99.90;;;;;;5073080;28;20235;-88
2022/01/17 00:49:05;;;;;;;56.53;19.63;;;6.60;99.90;;;;;;5085725;28;20188;-88
2022/01/17 00:51:32;;;;;;;60.23;19.67;;;6.80;99.90;;;;;;5080222;28;20310;-87
2022/01/17 00:53:59;;;;;;;64.53;20.73;;;6.60;99.90;;;;;;5079346;28;20719;-87
2022/01/17 00:56:25;;;;;;;92.13;29.43;;;6.60;99.90;;;;;;5067296;28;20197;-87
2022/01/17 00:58:52;;;;;;;84.70;27.03;;;6.60;99.90;;;;;;5066649;28;20215;-88
2022/01/17 01:01:19;;;;;;;84.90;25.10;;;6.70;99.90;;;;;;5066702;28;20215;-88
2022/01/17 01:03:48;;;;;;;84.17;29.40;;;6.70;99.90;;;;;;5067663;28;20641;-88
2022/01/17 01:06:15;;;;;;;84.37;28.13;;;6.70;99.90;;;;;;5066649;28;20220;-88
2022/01/17 01:08:42;;;;;;;59.10;20.43;;;5.80;99.90;;;;;;5067930;28;20193;-87
2022/01/17 01:11:10;;;;;;;72.00;24.77;;;7.30;99.90;;;;;;5065323;28;20208;-88
2022/01/17 01:13:38;;;;;;;81.97;25.93;;;6.70;99.90;;;;;;5061623;28;20716;-88
2022/01/17 01:16:24;;;;;;;89.23;29.10;;;6.80;99.90;;;;;;5067161;28;20216;-88
2022/01/17 01:27:35;;;;;;;87.33;27.23;;;7.20;99.90;;;;;;4968033;28;20372;-87
2022/01/17 01:27:43;;;;;;;89.10;30.33;;;7.10;99.90;;;;;;5082096;28;20333;-88
2022/01/17 01:30:13;;;;;;;83.53;27.10;;;6.70;99.90;;;;;;5058936;28;20243;-87
2022/01/17 01:32:45;;;;;;;88.23;28.93;;;6.80;99.90;;;;;;5061571;28;20235;-88
2022/01/17 01:35:16;;;;;;;93.67;30.13;;;6.80;99.90;;;;;;5073636;28;21727;-87
2022/01/17 01:37:44;;;;;;;85.20;27.10;;;6.80;99.90;;;;;;5065773;28;20201;-88
2022/01/17 01:40:12;;;;;;;84.67;29.00;;;10.50;99.90;;;;;;5065697;28;20523;-87
2022/01/17 01:42:39;;;;;;;78.03;23.03;;;6.80;99.90;;;;;;5066299;28;20211;-88
2022/01/17 01:45:08;;;;;;;62.77;22.90;;;6.80;99.90;;;;;;5068445;28;20224;-88
2022/01/17 01:47:36;;;;;;;92.37;27.20;;;6.80;99.90;;;;;;5068814;28;20204;-87
2022/01/17 01:50:04;;;;;;;67.80;23.90;;;6.80;99.90;;;;;;5066070;28;20201;-87
2022/01/17 01:52:32;;;;;;;83.83;26.03;;;6.80;99.90;;;;;;5065165;28;20196;-88
2022/01/17 01:54:59;;;;;;;101.10;32.30;;;;;;;;;;5066719;28;20238;-88
2022/01/17 01:57:26;;;;;;;89.27;28.53;;;6.70;99.90;;;;;;5068016;28;20221;-87
2022/01/17 01:59:53;;;;;;;88.70;29.00;;;8.00;99.90;;;;;;5065052;28;20244;-87
2022/01/17 02:02:20;;;;;;;79.00;26.47;;;6.70;99.90;;;;;;5068514;28;20210;-87
2022/01/17 02:04:50;;;;;;;101.80;33.10;;;7.20;99.90;;;;;;5065730;28;20228;-88
2022/01/17 02:07:19;;;;;;;93.60;28.60;;;6.80;99.90;;;;;;5066961;28;20213;-87
2022/01/17 02:09:48;;;;;;;90.70;30.37;;;6.80;99.90;;;;;;5065908;28;20196;-87
2022/01/17 02:12:20;;;;;;;86.37;27.63;;;7.20;99.90;;;;;;5065775;28;20201;-87
2022/01/17 02:14:48;;;;;;;91.97;27.03;;;6.80;99.90;;;;;;5065504;28;21013;-88
2022/01/17 02:17:14;;;;;;;57.07;19.97;;;6.80;99.90;;;;;;5065645;28;20295;-88
2022/01/17 02:19:46;;;;;;;96.00;31.90;;;6.80;99.90;;;;;;5065710;28;20212;-88
2022/01/17 02:22:15;;;;;;;61.47;20.13;;;7.00;99.90;;;;;;5065204;28;20268;-87
2022/01/17 02:24:42;;;;;;;82.80;26.40;;;6.80;99.90;;;;;;5058692;28;20258;-87
2022/01/17 02:27:09;;;;;;;85.37;24.63;;;7.60;99.90;;;;;;5067389;28;20228;-87
2022/01/17 02:29:35;;;;;;;77.13;24.80;;;6.80;99.90;;;;;;5067734;28;20200;-87
2022/01/17 02:32:03;;;;;;;58.70;18.53;;;6.80;99.90;;;;;;5064215;28;20221;-87
2022/01/17 02:34:30;;;;;;;79.00;23.47;;;6.80;99.90;;;;;;5065067;28;20672;-88
2022/01/17 02:36:57;;;;;;;60.60;18.90;;;7.70;99.90;;;;;;5065899;28;20363;-87
2022/01/17 02:39:25;;;;;;;78.70;25.13;;;7.90;99.90;;;;;;5066270;28;20249;-87
2022/01/17 02:41:52;;;;;;;77.37;26.23;;;6.80;99.90;;;;;;5066681;28;20216;-88
2022/01/17 02:44:19;;;;;;;90.17;30.97;;;6.90;99.90;;;;;;5065470;28;20254;-87
2022/01/17 02:46:46;;;;;;;99.03;29.33;;;6.90;99.90;;;;;;5063279;28;20209;-88
2022/01/17 02:49:13;;;;;;;76.40;22.70;;;6.90;99.90;;;;;;5074440;28;20277;-88
2022/01/17 02:51:40;;;;;;;99.60;32.17;;;6.90;99.90;;;;;;5071292;28;20208;-87
2022/01/17 02:54:07;;;;;;;60.73;19.67;;;6.90;99.90;;;;;;5074570;28;20225;-87
2022/01/17 02:56:35;;;;;;;71.37;22.77;;;7.90;99.90;;;;;;5069518;28;20213;-87
2022/01/17 02:59:02;;;;;;;64.53;19.20;;;6.90;99.90;;;;;;5068625;28;20620;-88
2022/01/17 03:01:30;;;;;;;77.83;25.27;;;6.90;99.90;;;;;;5069079;28;20594;-87
2022/01/17 03:03:58;;;;;;;85.10;29.53;;;6.90;99.90;;;;;;5079306;28;20299;-88
2022/01/17 03:06:25;;;;;;;86.67;28.97;;;6.90;99.90;;;;;;5077041;28;20274;-87
2022/01/17 03:08:53;;;;;;;103.23;31.57;;;7.50;99.90;;;;;;5069443;28;20209;-88
2022/01/17 03:11:22;;;;;;;83.90;23.73;;;6.90;99.90;;;;;;5068918;28;20212;-87
2022/01/17 03:13:52;;;;;;;64.47;20.23;;;6.90;99.90;;;;;;5067974;28;20247;-88
2022/01/17 03:16:22;;;;;;;82.10;25.37;;;6.90;99.90;;;;;;5071453;28;20217;-88
2022/01/17 03:18:51;;;;;;;85.10;29.27;;;7.80;99.90;;;;;;5069306;28;20237;-88
2022/01/17 03:21:20;;;;;;;68.10;22.77;;;6.90;99.90;;;;;;5068917;28;20208;-87
2022/01/17 03:23:48;;;;;;;79.20;23.17;;;5.40;99.90;;;;;;5068489;28;20766;-88
2022/01/17 03:26:15;;;;;;;94.37;29.27;;;6.90;99.90;;;;;;5068678;28;20928;-88
2022/01/17 03:28:43;;;;;;;76.07;24.43;;;7.70;99.90;;;;;;5067748;28;20216;-88
2022/01/17 03:31:11;;;;;;;90.70;27.83;;;10.10;99.90;;;;;;5067378;28;20216;-87
2022/01/17 03:33:39;;;;;;;74.30;23.17;;;6.90;99.90;;;;;;5067168;28;20228;-86
2022/01/17 03:36:06;;;;;;;95.97;27.13;;;6.90;99.90;;;;;;5068885;28;20690;-86
2022/01/17 03:38:35;;;;;;;91.03;24.43;;;6.90;99.90;;;;;;5066096;28;21022;-87
2022/01/17 03:41:02;;;;;;;108.63;34.73;;;6.90;99.90;;;;;;5067502;28;20274;-86
2022/01/17 03:43:30;;;;;;;88.77;31.37;;;6.70;99.90;;;;;;5069337;28;20307;-87
2022/01/17 03:45:58;;;;;;;89.23;28.90;;;6.90;99.90;;;;;;5067407;28;20294;-87
2022/01/17 03:48:28;;;;;;;88.87;27.30;;;6.90;99.90;;;;;;5078866;28;20239;-86
2022/01/17 03:50:56;;;;;;;91.37;27.80;;;6.90;99.90;;;;;;5066728;28;20298;-88
2022/01/17 03:53:24;;;;;;;115.03;34.13;;;10.50;99.90;;;;;;5067449;28;20216;-88
2022/01/17 03:55:51;;;;;;;76.00;24.30;;;8.00;99.90;;;;;;5068229;28;20204;-88
2022/01/17 03:58:18;;;;;;;89.13;28.67;;;6.90;99.90;;;;;;5067546;28;20209;-87
2022/01/17 04:00:47;;;;;;;91.10;32.83;;;6.90;99.90;;;;;;5066918;28;20315;-87
2022/01/17 04:03:15;;;;;;;88.67;26.67;;;9.00;99.90;;;;;;5066908;28;20254;-88
2022/01/17 04:05:43;;;;;;;84.23;27.17;;;;;;;;;;5065569;28;20228;-88
2022/01/17 04:08:11;;;;;;;81.40;29.93;;;6.80;99.90;;;;;;5065622;28;20213;-87
2022/01/17 04:10:38;;;;;;;94.77;30.07;;;6.80;99.90;;;;;;5066828;28;20295;-88
2022/01/17 04:13:09;;;;;;;90.23;32.33;;;;;;;;;;5083151;28;20210;-88
2022/01/17 04:15:37;;;;;;;92.60;31.03;;;6.90;99.90;;;;;;5071183;28;20209;-88
2022/01/17 04:18:04;;;;;;;89.40;29.87;;;6.80;99.90;;;;;;5071272;28;20212;-87
2022/01/17 04:20:31;;;;;;;98.67;31.50;;;7.00;99.90;;;;;;5073623;28;20217;-87
2022/01/17 04:23:02;;;;;;;90.13;28.57;;;6.80;99.90;;;;;;5072544;28;20209;-88
2022/01/17 04:25:32;;;;;;;85.20;28.10;;;6.80;99.90;;;;;;5067138;28;20699;-88
2022/01/17 04:27:59;;;;;;;95.63;29.33;;;6.70;99.90;;;;;;5064914;28;20648;-87
2022/01/17 04:30:27;;;;;;;71.63;22.83;;;6.70;99.90;;;;;;5064339;28;20213;-88
2022/01/17 04:32:54;;;;;;;66.20;19.70;;;7.00;99.90;;;;;;5065780;28;20213;-88
2022/01/17 04:35:24;;;;;;;73.13;24.90;;;6.80;99.90;;;;;;5066913;28;20592;-88
2022/01/17 04:37:53;;;;;;;62.47;21.20;;;6.70;99.90;;;;;;5067549;28;20205;-88
2022/01/17 04:40:22;;;;;;;67.23;19.83;;;6.70;99.90;;;;;;5065910;28;20696;-88
2022/01/17 04:42:53;;;;;;;64.07;19.77;;;7.20;99.90;;;;;;5068683;28;20573;-88
2022/01/17 04:45:20;;;;;;;58.33;16.87;;;6.70;99.90;;;;;;5067340;28;20217;-87
2022/01/17 04:47:49;;;;;;;64.77;16.90;;;6.70;99.90;;;;;;5069881;28;20684;-88
2022/01/17 04:50:19;;;;;;;65.47;19.50;;;7.40;99.90;;;;;;5066082;28;20281;-88
2022/01/17 04:52:47;;;;;;;54.77;15.60;;;6.80;99.90;;;;;;5065260;28;20212;-87
2022/01/17 04:55:15;;;;;;;65.57;20.47;;;6.80;99.90;;;;;;5068407;28;20746;-88
2022/01/17 04:57:45;;;;;;;56.53;16.47;;;6.70;99.90;;;;;;5065843;28;20212;-88
2022/01/17 05:00:15;;;;;;;76.93;24.23;;;6.70;99.90;;;;;;5065722;28;20212;-88
2022/01/17 05:02:42;;;;;;;79.37;21.97;;;6.70;99.90;;;;;;5074318;28;20689;-88
2022/01/17 05:05:10;;;;;;;64.67;22.23;;;6.70;99.90;;;;;;5066342;28;20313;-88
2022/01/17 05:07:38;;;;;;;64.37;20.70;;;7.40;99.90;;;;;;5066735;28;20211;-87
2022/01/17 05:10:08;;;;;;;70.13;18.67;;;6.60;99.90;;;;;;5065825;28;20232;-87
2022/01/17 05:12:35;;;;;;;52.67;15.30;;;6.60;99.90;;;;;;5066227;28;20691;-87
2022/01/17 05:15:05;;;;;;;53.87;13.07;;;6.60;99.90;;;;;;5066919;28;20304;-87
2022/01/17 05:17:44;;;;;;;52.77;15.77;;;6.60;99.90;;;;;;5067383;28;20228;-86
2022/01/17 05:20:12;;;;;;;58.93;17.63;;;6.60;99.90;;;;;;5066252;28;20317;-85
2022/01/17 05:22:41;;;;;;;46.60;14.30;;;6.70;99.90;;;;;;5066637;28;20221;-86
2022/01/17 05:25:11;;;;;;;55.70;15.23;;;6.70;99.90;;;;;;5065591;28;20301;-87
2022/01/17 05:27:38;;;;;;;55.30;19.00;;;6.70;99.90;;;;;;5068686;28;20239;-87
2022/01/17 05:30:10;;;;;;;70.27;19.90;;;6.70;99.90;;;;;;5065042;28;20215;-87
2022/01/17 05:32:37;;;;;;;62.43;18.90;;;6.70;99.90;;;;;;5065849;28;20644;-88
2022/01/17 05:35:05;;;;;;;63.17;18.57;;;6.80;99.90;;;;;;5072886;28;20252;-88
2022/01/17 05:37:33;;;;;;;60.40;17.80;;;;;;;;;;5076497;28;20201;-88
2022/01/17 05:40:00;;;;;;;65.37;19.23;;;6.80;99.90;;;;;;5066155;28;20208;-88
2022/01/17 05:42:27;;;;;;;60.83;17.30;;;6.80;99.90;;;;;;5064129;28;20212;-88
2022/01/17 05:44:54;;;;;;;71.10;21.20;;;6.70;99.90;;;;;;5064320;28;20228;-86
2022/01/17 05:47:23;;;;;;;58.10;16.57;;;6.70;99.90;;;;;;5069405;28;20212;-86
2022/01/17 05:49:50;;;;;;;51.03;14.30;;;6.70;99.90;;;;;;5064914;28;20691;-86
2022/01/17 05:52:17;;;;;;;67.00;21.23;;;6.70;99.90;;;;;;5066953;28;20222;-86
2022/01/17 05:54:44;;;;;;;56.73;17.47;;;6.70;99.90;;;;;;5066546;28;20235;-87
2022/01/17 05:57:11;;;;;;;63.27;18.47;;;6.70;99.90;;;;;;5066980;28;20208;-86
2022/01/17 05:59:39;;;;;;;68.73;21.47;;;6.70;99.90;;;;;;5075369;28;20209;-86
2022/01/17 06:02:07;;;;;;;73.47;20.47;;;6.70;99.90;;;;;;5080357;28;20240;-86
2022/01/17 06:04:36;;;;;;;54.47;16.60;;;6.80;99.90;;;;;;5069939;28;20236;-86
2022/01/17 06:07:04;;;;;;;55.93;16.10;;;6.70;99.90;;;;;;5069857;28;20634;-86
2022/01/17 06:09:31;;;;;;;68.10;22.87;;;6.70;99.90;;;;;;5071074;28;20204;-86
2022/01/17 06:11:59;;;;;;;83.00;23.93;;;6.80;99.90;;;;;;5081044;28;20200;-86
2022/01/17 06:14:25;;;;;;;66.87;20.67;;;6.80;99.90;;;;;;5070550;28;20624;-86
2022/01/17 06:16:53;;;;;;;58.83;15.87;;;6.80;99.90;;;;;;5068422;28;20211;-86
2022/01/17 06:19:20;;;;;;;57.63;14.83;;;6.80;99.90;;;;;;5060147;28;20739;-86
2022/01/17 06:21:49;;;;;;;63.13;19.13;;;7.30;99.90;;;;;;5062992;28;20212;-86
2022/01/17 06:24:16;;;;;;;58.67;16.00;;;6.80;99.90;;;;;;5069182;28;20308;-86
2022/01/17 06:26:44;;;;;;;52.27;15.27;;;7.10;99.90;;;;;;5068052;28;20239;-86
2022/01/17 06:29:13;;;;;;;54.03;15.43;;;6.80;99.90;;;;;;5071674;28;20208;-86
2022/01/17 06:31:41;;;;;;;51.40;14.83;;;6.80;99.90;;;;;;5063414;28;20204;-86
2022/01/17 06:34:09;;;;;;;67.60;19.27;;;6.70;99.90;;;;;;5064249;28;20232;-85
2022/01/17 06:36:35;;;;;;;45.93;13.97;;;6.70;99.90;;;;;;5070553;28;20258;-85
2022/01/17 06:39:07;;;;;;;50.23;14.57;;;6.70;99.90;;;;;;5074470;28;20262;-85
2022/01/17 06:41:34;;;;;;;56.77;16.77;;;6.60;99.90;;;;;;5077105;28;20219;-84
2022/01/17 06:44:01;;;;;;;64.93;18.13;;;7.50;99.90;;;;;;5076941;28;20236;-85
2022/01/17 06:46:29;;;;;;;73.77;20.47;;;6.60;99.90;;;;;;5074764;28;20247;-86
2022/01/17 06:48:56;;;;;;;72.37;18.03;;;6.50;99.90;;;;;;5073611;28;20288;-85
2022/01/17 06:51:23;;;;;;;69.03;21.77;;;6.40;99.90;;;;;;5074319;28;20208;-85
2022/01/17 06:53:50;;;;;;;57.77;18.10;;;6.30;99.90;;;;;;5072894;28;20228;-86
2022/01/17 06:56:19;;;;;;;63.17;19.63;;;6.30;99.90;;;;;;5083691;28;20780;-85
2022/01/17 06:58:46;;;;;;;72.20;20.63;;;6.20;99.90;;;;;;5071491;28;20702;-85
2022/01/17 07:01:15;;;;;;;65.23;22.03;;;6.20;99.90;;;;;;5075677;28;20750;-85
2022/01/17 07:03:42;;;;;;;51.30;16.10;;;6.20;99.90;;;;;;5074863;28;20256;-85
2022/01/17 07:06:09;;;;;;;68.40;22.27;;;6.20;99.90;;;;;;5072874;28;20232;-85
2022/01/17 07:08:36;;;;;;;57.83;18.37;;;6.90;99.90;;;;;;5074998;28;20232;-86
2022/01/17 07:11:03;;;;;;;55.93;16.30;;;6.10;99.90;;;;;;5076523;28;20213;-85
2022/01/17 07:13:31;;;;;;;56.30;19.90;;;6.10;99.90;;;;;;5072434;28;20217;-85
2022/01/17 07:15:58;;;;;;;52.80;15.67;;;6.10;99.90;;;;;;5070779;28;20206;-85
2022/01/17 07:18:26;;;;;;;49.13;14.37;;;6.10;99.90;;;;;;5073446;28;20213;-85
2022/01/17 07:20:52;;;;;;;62.33;18.63;;;6.10;99.90;;;;;;5082097;28;20215;-85
2022/01/17 07:23:19;;;;;;;62.07;18.80;;;6.00;99.90;;;;;;5084460;28;20716;-85
2022/01/17 07:25:46;;;;;;;82.70;24.17;;;6.70;99.90;;;;;;5091151;28;20221;-83
2022/01/17 07:28:14;;;;;;;57.40;18.33;;;6.00;99.90;;;;;;5091992;28;20222;-85
2022/01/17 07:30:42;;;;;;;60.13;18.47;;;5.90;99.90;;;;;;5091116;28;20208;-85
2022/01/17 07:33:10;;;;;;;68.00;20.67;;;5.90;99.90;;;;;;5092733;28;20186;-87
2022/01/17 07:35:37;;;;;;;55.07;14.00;;;;;;;;;;5083982;28;20215;-86
2022/01/17 07:38:07;;;;;;;56.00;17.10;;;5.90;99.90;;;;;;5086058;28;20209;-86
2022/01/17 07:40:37;;;;;;;59.60;17.97;;;5.90;99.90;;;;;;5085687;28;20287;-85
2022/01/17 07:43:04;;;;;;;62.40;21.20;;;5.90;99.90;;;;;;5087131;28;20205;-87
2022/01/17 07:45:32;;;;;;;58.20;18.83;;;5.90;99.90;;;;;;5082593;28;20231;-87
2022/01/17 07:48:33;;;;;;;63.77;17.87;;;6.00;99.90;;;;;;5088940;28;20193;-86
2022/01/17 07:50:59;;;;;;;54.53;15.93;;;6.50;99.90;;;;;;5089247;28;20228;-85
2022/01/17 07:53:26;;;;;;;58.43;16.90;;;6.00;99.90;;;;;;5087714;28;20227;-87
2022/01/17 07:55:56;;;;;;;60.13;17.83;;;6.10;99.90;;;;;;5079385;28;20225;-84
2022/01/17 07:58:23;;;;;;;59.10;18.77;;;6.20;99.90;;;;;;5084698;28;20216;-87
2022/01/17 08:00:50;;;;;;;46.70;14.23;;;6.30;99.90;;;;;;5082544;28;20217;-86
2022/01/17 08:03:19;;;;;;;54.73;15.00;;;6.50;99.90;;;;;;5083489;28;20450;-86
2022/01/17 08:05:46;;;;;;;55.20;15.47;;;6.90;99.90;;;;;;5084957;28;20216;-86
2022/01/17 08:08:13;;;;;;;55.37;14.53;;;6.80;99.90;;;;;;5081387;28;20205;-86
2022/01/17 08:10:40;;;;;;;47.40;16.60;;;6.70;99.90;;;;;;5076680;28;20616;-86
2022/01/17 08:13:09;;;;;;;44.73;15.83;;;6.80;99.90;;;;;;5069768;28;20205;-85
2022/01/17 08:15:38;;;;;;;53.83;14.77;;;6.90;99.90;;;;;;5076268;28;20233;-86
2022/01/17 08:18:05;;;;;;;47.13;14.03;;;6.90;99.90;;;;;;5077458;28;20239;-86
2022/01/17 08:20:33;;;;;;;50.90;17.57;;;7.00;99.90;;;;;;5072795;28;20219;-87
2022/01/17 08:23:00;;;;;;;54.83;19.13;;;7.10;99.90;;;;;;5073870;28;20216;-86
2022/01/17 08:25:26;;;;;;;56.57;17.10;;;7.10;99.90;;;;;;5075877;28;20239;-86
2022/01/17 08:27:53;;;;;;;40.17;13.40;;;7.20;99.90;;;;;;5074525;28;20254;-86
2022/01/17 08:30:20;;;;;;;49.27;15.40;;;7.40;99.90;;;;;;5070785;28;20654;-86
2022/01/17 08:32:55;;;;;;;51.83;16.53;;;7.30;99.90;;;;;;5076110;28;20209;-87
2022/01/17 08:35:22;;;;;;;55.97;15.40;;;7.30;99.90;;;;;;5071896;28;20579;-87
2022/01/17 08:37:51;;;;;;;39.90;13.67;;;7.40;99.90;;;;;;5077053;28;20201;-87
2022/01/17 08:40:18;;;;;;;46.23;16.10;;;7.40;99.90;;;;;;5076479;28;20216;-88
2022/01/17 08:42:45;;;;;;;49.17;15.67;;;7.40;99.90;;;;;;5076430;28;20240;-86
2022/01/17 08:45:15;;;;;;;56.33;17.00;;;7.50;99.90;;;;;;5074339;28;20224;-87
2022/01/17 08:47:45;;;;;;;42.13;12.80;;;7.40;99.90;;;;;;5078494;28;20248;-87
2022/01/17 08:50:13;;;;;;;44.83;14.87;;;7.60;99.90;;;;;;5075276;28;20214;-85
2022/01/17 08:52:40;;;;;;;46.50;14.03;;;7.50;99.90;;;;;;5073062;28;20209;-87
2022/01/17 08:55:09;;;;;;;48.13;15.07;;;7.60;99.90;;;;;;5064578;28;20233;-86
2022/01/17 08:57:39;;;;;;;40.10;12.90;;;7.60;99.90;;;;;;5084821;28;20196;-85
2022/01/17 09:00:10;;;;;;;47.80;17.77;;;7.50;99.90;;;;;;5083695;28;20909;-87
2022/01/17 09:02:37;;;;;;;45.57;15.23;;;7.50;99.90;;;;;;5081927;28;20833;-86
2022/01/17 09:05:04;;;;;;;43.70;14.03;;;7.50;99.90;;;;;;5084911;28;20232;-87
2022/01/17 09:07:31;;;;;;;44.97;14.37;;;7.60;99.90;;;;;;5085015;28;20212;-85
2022/01/17 09:09:58;;;;;;;47.03;15.07;;;7.50;99.90;;;;;;5079144;28;20301;-85
2022/01/17 09:12:27;;;;;;;52.10;16.47;;;7.40;99.90;;;;;;5088235;28;20235;-86
2022/01/17 09:14:55;;;;;;;45.10;14.10;;;7.60;99.90;;;;;;5083389;28;20731;-86
2022/01/17 09:17:23;;;;;;;54.17;17.97;;;;;;;;;;5083961;28;20208;-86
2022/01/17 09:19:50;;;;;;;54.83;17.17;;;;;;;;;;5083776;28;20209;-87
2022/01/17 09:22:17;;;;;;;53.80;19.17;;;7.70;99.90;;;;;;5074837;28;20299;-86
2022/01/17 09:24:44;;;;;;;55.57;16.57;;;7.70;99.90;;;;;;5072898;28;20224;-87
2022/01/17 09:27:15;;;;;;;56.03;17.10;;;7.70;99.90;;;;;;5069281;28;20236;-87
2022/01/17 09:29:43;;;;;;;54.57;16.10;;;7.80;99.90;;;;;;5072917;28;20685;-87
2022/01/17 09:32:10;;;;;;;60.23;19.47;;;7.90;99.90;;;;;;5084637;28;20188;-87
2022/01/17 09:34:37;;;;;;;47.63;16.67;;;7.90;99.90;;;;;;5086167;28;20605;-86
2022/01/17 09:37:05;;;;;;;52.93;18.50;;;7.90;99.90;;;;;;5079276;28;20228;-86
2022/01/17 09:39:32;;;;;;;47.77;14.67;;;7.90;99.90;;;;;;5074798;28;20767;-86
2022/01/17 09:41:59;;;;;;;60.83;20.27;;;8.00;99.90;;;;;;5072018;28;20234;-86
2022/01/17 09:44:26;;;;;;;47.40;16.93;;;8.00;99.90;;;;;;5070264;28;20228;-86
2022/01/17 09:46:56;;;;;;;46.27;14.67;;;8.20;99.90;;;;;;5076383;28;20811;-87
2022/01/17 09:49:27;;;;;;;45.63;13.33;;;8.00;99.90;;;;;;5075361;28;20648;-86
2022/01/17 09:52:07;;;;;;;52.20;16.43;;;8.00;99.90;;;;;;5075869;28;20208;-86
2022/01/17 09:54:36;;;;;;;47.10;12.80;;;8.00;99.90;;;;;;5076066;28;20623;-86
2022/01/17 09:57:09;;;;;;;39.83;13.30;;;10.20;99.90;;;;;;5078649;28;20206;-86
2022/01/17 09:59:38;;;;;;;58.00;16.00;;;8.00;99.90;;;;;;5081014;28;20219;-86
2022/01/17 10:02:08;;;;;;;46.90;16.53;;;8.10;99.90;;;;;;5086204;28;20238;-86
2022/01/17 10:04:39;;;;;;;50.37;17.23;;;8.10;99.90;;;;;;5090336;28;20226;-86
2022/01/17 10:07:07;;;;;;;48.43;18.23;;;;;;;;;;5088416;28;20288;-87
2022/01/17 10:09:39;;;;;;;43.93;14.87;;;;;;;;;;5093225;28;20235;-87
2022/01/17 10:12:10;;;;;;;48.30;14.37;;;8.00;99.90;;;;;;5084189;28;20206;-86
2022/01/17 10:14:40;;;;;;;48.93;14.87;;;8.00;99.90;;;;;;5090636;28;20233;-87
2022/01/17 10:17:11;;;;;;;41.40;12.73;;;8.00;99.90;;;;;;5083862;28;20189;-87
2022/01/17 10:19:39;;;;;;;46.03;15.93;;;8.00;99.90;;;;;;5082992;28;20208;-87
2022/01/17 10:22:12;;;;;;;45.63;14.90;;;7.70;99.90;;;;;;5089746;28;20227;-86
2022/01/17 10:24:50;;;;;;;47.40;15.17;;;7.80;99.90;;;;;;5088560;28;20212;-86
2022/01/17 10:35:56;;;;;;;47.97;14.90;;;7.70;99.90;;;;;;4987436;28;20205;-86
2022/01/17 10:38:24;;;;;;;47.30;16.73;;;7.70;99.90;;;;;;5051810;28;20247;-87
2022/01/17 10:40:55;;;;;;;41.07;12.03;;;7.70;99.90;;;;;;5086238;28;20217;-87
2022/01/17 10:43:25;;;;;;;46.63;14.03;;;7.70;99.90;;;;;;5088946;28;20197;-87
2022/01/17 10:45:54;;;;;;;54.17;16.47;;;7.80;99.90;;;;;;5084970;28;20208;-85
2022/01/17 10:48:29;;;;;;;47.37;15.33;;;7.70;99.90;;;;;;5079198;28;20221;-87
2022/01/17 10:50:56;;;;;;;49.37;17.67;;;7.70;99.90;;;;;;5084196;28;20192;-86
2022/01/17 10:53:23;;;;;;;49.03;14.87;;;7.70;99.90;;;;;;5092594;28;20238;-86
2022/01/17 10:55:53;;;;;;;49.37;15.67;;;7.70;99.90;;;;;;5090952;28;20213;-86
2022/01/17 10:58:24;;;;;;;53.03;17.47;;;7.60;99.90;;;;;;5088308;28;20216;-87
2022/01/17 11:00:53;;;;;;;48.53;14.83;;;7.70;99.90;;;;;;5088274;28;20198;-86
2022/01/17 11:03:25;;;;;;;50.17;13.53;;;7.60;99.90;;;;;;5091715;28;20189;-86
2022/01/17 11:05:54;;;;;;;41.80;14.40;;;7.60;99.90;;;;;;5092370;28;20451;-85
2022/01/17 11:08:23;;;;;;;55.87;16.90;;;7.70;99.90;;;;;;5083962;28;20242;-86
2022/01/17 11:10:53;;;;;;;54.03;16.67;;;7.60;99.90;;;;;;5079566;28;20193;-87
2022/01/17 11:13:21;;;;;;;75.17;18.53;;;7.60;99.90;;;;;;5071603;28;20221;-87
2022/01/17 11:15:54;;;;;;;55.73;13.87;;;7.60;99.90;;;;;;5072846;28;20702;-85
2022/01/17 11:18:26;;;;;;;44.80;12.07;;;7.60;99.90;;;;;;5074929;28;20721;-87
2022/01/17 11:20:55;;;;;;;61.50;15.17;;;7.60;99.90;;;;;;5075521;28;20427;-87
2022/01/17 11:23:23;;;;;;;47.60;15.17;;;7.70;99.90;;;;;;5075264;28;20201;-87
2022/01/17 11:25:54;;;;;;;55.40;14.40;;;7.70;99.90;;;;;;5072830;28;20212;-86
2022/01/17 11:28:24;;;;;;;44.10;12.53;;;7.70;99.90;;;;;;5071218;28;20235;-86
2022/01/17 11:30:53;;;;;;;50.60;13.17;;;7.80;99.90;;;;;;5068729;28;20227;-87
2022/01/17 11:33:22;;;;;;;48.63;13.83;;;7.90;99.90;;;;;;5069426;28;20224;-87
2022/01/17 11:35:52;;;;;;;45.97;13.37;;;7.80;99.90;;;;;;5071051;28;20210;-88
2022/01/17 11:38:24;;;;;;;54.17;14.90;;;7.90;99.90;;;;;;5067152;28;20231;-86
2022/01/17 11:40:52;;;;;;;43.17;13.30;;;8.00;99.90;;;;;;5070476;28;20329;-86
2022/01/17 11:43:22;;;;;;;49.60;12.13;;;8.00;99.90;;;;;;5074434;28;20211;-86
2022/01/17 11:45:51;;;;;;;47.67;13.23;;;8.10;99.90;;;;;;5073127;28;20197;-86
2022/01/17 11:48:29;;;;;;;44.93;12.07;;;8.20;99.90;;;;;;5069647;28;20662;-87
2022/01/17 11:50:58;;;;;;;50.77;13.30;;;8.20;99.90;;;;;;5067871;28;20321;-87
2022/01/17 11:53:53;;;;;;;60.50;15.53;;;8.20;99.90;;;;;;5069480;28;20213;-86
2022/01/17 11:56:40;;;;;;;59.00;13.93;;;8.20;99.90;;;;;;5070087;28;20218;-86
2022/01/17 11:59:38;;;;;;;46.60;11.63;;;8.20;99.90;;;;;;5070546;28;20641;-87
2022/01/17 12:02:28;;;;;;;46.37;9.70;;;8.20;99.90;;;;;;5071939;28;20218;-86
2022/01/17 12:05:28;;;;;;;39.73;10.57;;;8.20;99.90;;;;;;5065378;28;20254;-87
2022/01/17 12:07:58;;;;;;;43.97;12.27;;;8.20;99.90;;;;;;5081532;28;20231;-85
2022/01/17 12:10:26;;;;;;;47.40;12.90;;;8.20;99.90;;;;;;5069917;28;20212;-86
2022/01/17 12:13:34;;;;;;;38.57;11.60;;;8.10;99.90;;;;;;5069318;28;20704;-86
2022/01/17 12:16:07;;;;;;;41.53;10.93;;;8.10;99.90;;;;;;5069646;28;20222;-85
2022/01/17 12:18:36;;;;;;;41.67;12.53;;;8.10;99.90;;;;;;5069267;28;20233;-87
2022/01/17 12:21:28;;;;;;;39.97;11.07;;;8.10;99.90;;;;;;5067394;28;20212;-87
2022/01/17 12:24:35;;;;;;;43.33;11.00;;;8.20;99.90;;;;;;5069412;28;20232;-87
2022/01/17 12:27:06;;;;;;;42.67;10.70;;;8.20;99.90;;;;;;5071482;28;20233;-86
2022/01/17 12:29:38;;;;;;;40.60;11.83;;;8.20;99.90;;;;;;5073483;28;20238;-87
2022/01/17 12:32:06;;;;;;;43.50;10.23;;;8.20;99.90;;;;;;5072422;28;20208;-86
2022/01/17 12:34:41;;;;;;;46.37;11.57;;;8.20;99.90;;;;;;5072133;28;20226;-87
2022/01/17 12:37:33;;;;;;;48.93;11.63;;;8.20;99.90;;;;;;5072220;28;20210;-87
2022/01/17 12:40:17;;;;;;;43.10;9.87;;;8.20;99.90;;;;;;5072690;28;20215;-87
2022/01/17 12:43:06;;;;;;;45.77;11.23;;;8.20;99.90;;;;;;5071117;28;20214;-87
2022/01/17 12:45:36;;;;;;;40.30;8.97;;;8.20;99.90;;;;;;5072597;28;20592;-87
2022/01/17 12:48:06;;;;;;;51.97;13.27;;;8.20;99.90;;;;;;5073279;28;20240;-87
2022/01/17 12:50:34;;;;;;;44.50;10.33;;;8.20;99.90;;;;;;5070969;28;20216;-88
2022/01/17 12:53:03;;;;;;;39.80;9.77;;;9.50;99.90;;;;;;5072988;28;20214;-87
2022/01/17 12:55:38;;;;;;;38.50;10.40;;;8.20;99.90;;;;;;5073719;28;20675;-87
2022/01/17 12:58:14;;;;;;;41.23;9.53;;;8.20;99.90;;;;;;5070765;28;20228;-87
2022/01/17 13:00:45;;;;;;;39.20;11.10;;;8.20;99.90;;;;;;5070907;28;20208;-86
2022/01/17 13:03:14;;;;;;;43.37;9.93;;;8.20;99.90;;;;;;5072643;28;20607;-85
2022/01/17 13:05:41;;;;;;;42.30;9.97;;;8.20;99.90;;;;;;5071787;28;20651;-87